• Join FlightAware (Why Join?)
  • Login
  • US Flag 
05:59PM EDT


 

Airport Tracker/Info


-or-


 

Live Flight TrackerFlight Track Log ✈ UAL5961 ✈ 03-May-2013 ✈ KBNA - KIAD

Flight Track Log - Related Links

Times and Time Zones

All times are in EDT time to prevent confusion due to time zone crossing. See the UAL5961 flight status page for this flight to view local times or setup timezone preferences in your user account.

Time Position Orientation Groundspeed Altitude Reporting Facility
EDT Latitude Longitude Course Direction KTS MPH feet Rate Location/Type
07:16PM 36.1167 -86.6833 180° South 162 186 1,300  Level Nashville TRACON
07:16PM 36.1000 -86.6833 180° South 176 203 2,000 2,400 Climbing Nashville TRACON
07:18PM 36.0833 -86.6333 112° Southeast 192 221 4,700 2,160 Climbing Nashville TRACON
07:19PM 36.1000 -86.5667 73° East 204 235 6,600 1,920 Climbing Nashville TRACON
07:20PM 36.1314 -86.4150 76° East 285 328 9,900 1,980 Climbing Memphis Center
07:21PM 36.1494 -86.3267 76° East 275 316 12,000 1,680 Climbing Memphis Center
07:22PM 36.1692 -86.2306 76° East 280 322 13,300 1,200 Climbing Memphis Center
07:23PM 36.1906 -86.1214 76° East 306 352 14,400 1,080 Climbing Memphis Center
07:24PM 36.2283 -86.0089 67° East 336 387 15,500 1,020 Climbing Memphis Center
07:25PM 36.2728 -85.9086 61° Northeast 348 400 16,500 1,140 Climbing Memphis Center
07:27PM 36.3628 -85.7111 60° Northeast 386 444 18,700 1,200 Climbing Indianapolis Center
07:28PM 36.4186 -85.5944 59° Northeast 390 449 19,900 1,260 Climbing Indianapolis Center
07:29PM 36.4753 -85.4764 59° Northeast 394 453 21,400 1,440 Climbing Indianapolis Center
07:30PM 36.5292 -85.3592 60° Northeast 392 451 22,900 1,260 Climbing Indianapolis Center
07:31PM 36.5972 -85.2183 59° Northeast 394 453 24,100 1,080 Climbing Indianapolis Center
07:32PM 36.6414 -85.0900 67° East 399 459 25,200 960 Climbing Indianapolis Center
07:33PM 36.6808 -84.9608 69° East 397 457 26,200 840 Climbing Indianapolis Center
07:34PM 36.7208 -84.8294 69° East 402 463 27,000 360 Climbing Indianapolis Center
07:35PM 36.7622 -84.6933 69° East 418 481 27,000  Level Indianapolis Center
07:36PM 36.8050 -84.5508 69° East 435 501 27,000  Level Indianapolis Center
07:37PM 36.8514 -84.3994 69° East 449 517 27,000  Level Indianapolis Center
07:38PM 36.8958 -84.2506 69° East 455 524 27,000  Level Indianapolis Center
07:39PM 36.9408 -84.0997 69° East 463 533 27,000  Level Indianapolis Center
07:40PM 36.9867 -83.9478 69° East 464 534 27,000  Level Indianapolis Center
07:41PM 37.0317 -83.7947 70° East 466 536 27,000  Level Indianapolis Center
07:42PM 37.0856 -83.6172 69° East 468 539 27,000  Level Indianapolis Center
07:43PM 37.1292 -83.4631 70° East 468 539 27,000  Level Indianapolis Center
07:44PM 37.1739 -83.3103 70° East 465 535 27,000  Level Indianapolis Center
07:45PM 37.2183 -83.1558 70° East 466 536 27,000  Level Indianapolis Center
07:46PM 37.2622 -83.0011 70° East 465 535 27,000  Level Indianapolis Center
07:47PM 37.3069 -82.8464 70° East 466 536 27,000  Level Indianapolis Center
07:49PM 37.3508 -82.6914 70° East 468 539 27,000  Level Indianapolis Center
07:50PM 37.3953 -82.5375 70° East 466 536 27,000  Level Indianapolis Center
07:51PM 37.4383 -82.3833 71° East 464 534 27,000  Level Indianapolis Center
07:52PM 37.4797 -82.2300 71° East 461 531 27,000  Level Indianapolis Center
07:53PM 37.5306 -82.0519 70° East 461 531 27,000  Level Indianapolis Center
07:54PM 37.5728 -81.8964 71° East 466 536 27,000  Level Indianapolis Center
07:55PM 37.6158 -81.7425 71° East 466 536 27,000  Level Indianapolis Center
07:56PM 37.6558 -81.5869 72° East 466 536 27,000  Level Indianapolis Center
07:57PM 37.7014 -81.4219 71° East 471 542 27,000  Level Indianapolis Center
07:58PM 37.7403 -81.2722 72° East 469 540 27,000  Level Washington Center
07:59PM 37.7853 -81.1128 70° East 459 528 27,000  Level Washington Center
08:00PM 37.8358 -80.9639 67° East 459 528 27,000  Level Washington Center
08:01PM 37.8858 -80.8253 65° Northeast 466 536 27,000  Level Washington Center
08:02PM 37.9444 -80.6767 63° Northeast 466 536 27,000  Level Washington Center
08:03PM 38.0250 -80.5450 52° Northeast 466 536 27,000  Level Washington Center
08:04PM 38.1033 -80.4183 52° Northeast 466 536 27,000 -180 Level Washington Center
08:05PM 38.1881 -80.2758 53° Northeast 461 531 26,700 -600 Descending Washington Center
08:06PM 38.2619 -80.1483 54° Northeast 456 525 25,900 -840 Descending Washington Center
08:07PM 38.3314 -80.0200 55° Northeast 445 512 25,100 -720 Descending Washington Center
08:08PM 38.3986 -79.8917 56° Northeast 435 501 24,600 -540 Descending Washington Center
08:09PM 38.4536 -79.7489 64° Northeast 435 501 24,100 -300 Descending Washington Center
08:10PM 38.4811 -79.6153 75° East 429 494 24,000 -60 Descending Washington Center
08:11PM 38.5172 -79.4686 72° East 429 494 24,000 -600 Level Washington Center
08:12PM 38.5444 -79.3319 76° East 419 482 22,900 -1,380 Descending Washington Center
08:13PM 38.5656 -79.1869 79° East 392 451 21,300 -1,620 Descending Washington Center
08:14PM 38.5883 -79.0553 77° East 387 445 19,800 -1,680 Descending Washington Center
08:15PM 38.6086 -78.9286 78° East 375 432 18,000 -1,680 Descending Washington Center
08:16PM 38.6306 -78.8075 77° East 365 420 16,500 -1,740 Descending Washington Center
08:17PM 38.6567 -78.6889 74° East 353 406 14,500 -1,980 Descending Washington Center
08:18PM 38.6844 -78.5783 72° East 333 383 12,700 -1,680 Descending Washington Center
08:19PM 38.7100 -78.4731 73° East 321 369 11,200 -1,260 Descending Washington Center
08:20PM 38.7597 -78.3950 51° Northeast 294 338 10,200 -1,020 Descending Washington Center
08:21PM 38.8375 -78.3686 15° North 268 308 9,200 -720 Descending Washington Center
08:22PM 38.9153 -78.3450 13° North 268 308 8,800 -840 Descending Washington Center
08:23PM 38.9422 -78.2553 69° East 242 278 7,600 -1,200 Descending Washington Center
08:24PM 38.9608 -78.1650 75° East 242 278 6,500 -1,080 Descending Washington Center
08:25PM 38.9772 -78.0803 76° East 242 278 5,500 -840 Descending Washington Center
08:26PM 38.9936 -77.9981 76° East 242 278 4,900 -360 Descending Washington Center
08:27PM 39.0097 -77.9131 76° East 242 278 4,900 -240 Level Washington Center
08:29PM 39.0333 -77.7667 78° East 172 198 4,300 -360 Descending Potomac TRACON
08:30PM 39.0167 -77.7167 113° Southeast 165 190 3,900 -540 Descending Potomac TRACON
08:31PM 39.0000 -77.6667 113° Southeast 163 188 3,300 -780 Descending Potomac TRACON
08:32PM 38.9833 -77.6000 108° East 163 188 2,400 -900 Descending Potomac TRACON
08:33PM 38.9667 -77.5667 123° Southeast 133 153 1,600 -780 Descending Potomac TRACON
08:34PM 38.9500 -77.5167 113° Southeast 122 140 900 -720 Descending Potomac TRACON
08:36PM 38.9474 -77.4599 165° South  Level Estimated
08:43PM 38.9474 -77.4599 165° South  Level Estimated
08:44PM 38.9474 -77.4599 165° South  Level Estimated
08:45PM 38.9474 -77.4599 165° South  Level Estimated